Time;durP1;ratioP1;P1;durP2;ratioP2;P2;SDS_P1;SDS_P2;PMS_P1;PMS_P2;Temp;Humidity;BMP_temperature;BMP_pressure;BME280_temperature;BME280_humidity;BME280_pressure;Samples;Min_cycle;Max_cycle;Signal;HPM_P1;HPM_P2
2024/02/15 00:01:42;;;;;;;34.78;17.63;;;;;;;6.34;100.00;97980.03;4982184;28;20102;-88
2024/02/15 00:04:07;;;;;;;38.25;19.33;;;;;;;6.33;100.00;97981.88;4988801;28;20064;-87
2024/02/15 00:06:33;;;;;;;44.63;19.85;;;;;;;6.36;100.00;97972.91;4991239;28;20482;-87
2024/02/15 00:08:59;;;;;;;38.78;18.88;;;;;;;6.33;100.00;97959.75;4999230;28;20061;-89
2024/02/15 00:11:24;;;;;;;39.17;19.05;;;;;;;6.38;100.00;97974.56;4997856;28;20071;-88
2024/02/15 00:13:50;;;;;;;37.33;19.23;;;;;;;6.32;100.00;97963.31;4992246;28;20029;-88
2024/02/15 00:16:15;;;;;;;38.05;18.40;;;;;;;6.33;100.00;97962.41;4984125;28;20494;-88
2024/02/15 00:18:41;;;;;;;36.85;18.90;;;;;;;6.37;100.00;97967.53;4997616;28;20033;-88
2024/02/15 00:21:07;;;;;;;41.45;18.85;;;;;;;6.33;100.00;97970.38;5019609;28;20485;-88
2024/02/15 00:23:32;;;;;;;40.03;18.02;;;;;;;6.36;100.00;97971.13;5003586;28;20152;-88
2024/02/15 00:25:58;;;;;;;36.63;17.85;;;;;;;6.32;100.00;97971.28;4987703;28;20049;-87
2024/02/15 00:28:26;;;;;;;34.17;17.83;;;;;;;6.30;100.00;97975.81;4981217;28;20485;-89
2024/02/15 00:30:52;;;;;;;42.55;19.13;;;;;;;6.28;100.00;97972.31;4999047;28;20032;-87
2024/02/15 00:33:17;;;;;;;46.88;21.88;;;;;;;6.30;100.00;97987.28;4997259;28;20029;-87
2024/02/15 00:35:43;;;;;;;44.95;20.98;;;;;;;6.26;100.00;97971.50;4996237;28;20029;-88
2024/02/15 00:38:09;;;;;;;46.78;21.48;;;;;;;6.34;100.00;97988.88;4990440;28;20017;-87
2024/02/15 00:40:34;;;;;;;44.65;20.77;;;;;;;6.32;100.00;97984.56;4990463;28;20124;-88
2024/02/15 00:43:00;;;;;;;39.05;18.90;;;;;;;6.25;100.00;97967.13;4996872;28;20036;-87
2024/02/15 00:45:26;;;;;;;40.50;19.42;;;;;;;6.29;100.00;97976.72;4997099;28;20032;-87
2024/02/15 00:47:51;;;;;;;33.97;16.98;;;;;;;6.28;100.00;97967.00;4994728;28;20069;-87
2024/02/15 00:50:17;;;;;;;28.75;15.30;;;;;;;6.29;100.00;97968.75;4993047;28;20026;-88
2024/02/15 00:52:43;;;;;;;33.05;15.60;;;;;;;6.30;100.00;97973.16;4994553;28;20065;-87
2024/02/15 00:55:08;;;;;;;31.98;15.50;;;;;;;6.33;100.00;97965.06;4986874;28;20593;-88
2024/02/15 00:57:34;;;;;;;35.05;16.88;;;;;;;6.19;100.00;97967.34;5002904;28;20041;-87
2024/02/15 01:00:02;;;;;;;35.60;17.45;;;;;;;6.15;100.00;97976.38;4992282;28;20057;-88
2024/02/15 01:02:27;;;;;;;40.60;20.42;;;;;;;6.05;100.00;97974.97;4987232;28;20110;-88
2024/02/15 01:04:55;;;;;;;37.22;19.67;;;;;;;6.00;100.00;97968.03;4991682;28;20065;-87
2024/02/15 01:07:20;;;;;;;38.10;18.48;;;;;;;5.91;100.00;97972.81;4998958;28;20026;-87
2024/02/15 01:09:46;;;;;;;32.75;17.23;;;;;;;5.99;100.00;97970.78;5001787;28;20033;-88
2024/02/15 01:12:12;;;;;;;34.83;17.40;;;;;;;5.97;100.00;97970.81;4986933;28;20474;-88
2024/02/15 01:14:37;;;;;;;33.47;16.98;;;;;;;5.99;100.00;97984.91;4987400;28;20022;-88
2024/02/15 01:17:03;;;;;;;32.45;15.73;;;;;;;5.95;100.00;97983.28;4976221;28;20034;-87
2024/02/15 01:19:29;;;;;;;31.50;16.27;;;;;;;5.96;100.00;97982.38;4983943;28;20157;-87
2024/02/15 01:21:54;;;;;;;28.90;15.45;;;;;;;5.89;100.00;97980.84;4986016;28;20080;-87
2024/02/15 01:24:20;;;;;;;38.65;15.88;;;;;;;5.88;100.00;97981.78;4996067;28;20612;-88
2024/02/15 01:26:47;;;;;;;32.05;16.40;;;;;;;5.85;100.00;97979.22;5000258;28;20062;-89
2024/02/15 01:29:13;;;;;;;31.05;15.88;;;;;;;5.97;100.00;97992.06;5000974;28;20022;-88
2024/02/15 01:31:39;;;;;;;33.42;15.85;;;;;;;5.94;100.00;97986.84;4976296;28;20108;-87
2024/02/15 01:34:04;;;;;;;31.95;16.33;;;;;;;5.85;100.00;97973.91;5012718;28;20116;-87
2024/02/15 01:36:30;;;;;;;30.70;16.60;;;;;;;5.92;100.00;97980.75;4991923;28;20048;-88
2024/02/15 01:38:56;;;;;;;31.60;16.63;;;;;;;5.80;100.00;97978.50;4990069;28;20033;-88
2024/02/15 01:41:22;;;;;;;33.72;15.98;;;;;;;5.83;100.00;97978.41;4990198;28;20026;-90
2024/02/15 01:43:49;;;;;;;29.40;15.73;;;;;;;5.94;100.00;97992.16;4982140;28;20041;-88
2024/02/15 01:46:15;;;;;;;33.33;15.88;;;;;;;5.91;100.00;97979.00;5007672;28;20112;-87
2024/02/15 01:48:42;;;;;;;31.42;15.57;;;;;;;5.75;100.00;97956.56;5004742;28;20065;-88
2024/02/15 01:51:10;;;;;;;35.30;17.27;;;;;;;5.96;100.00;97979.72;4988978;28;20049;-87
2024/02/15 01:53:35;;;;;;;34.60;17.10;;;;;;;6.00;100.00;97976.00;4998012;28;20037;-87
2024/02/15 01:56:02;;;;;;;30.85;16.52;;;;;;;6.04;100.00;97986.53;4990883;28;20034;-87
2024/02/15 01:58:28;;;;;;;30.63;15.07;;;;;;;6.04;100.00;97984.72;4998592;28;20037;-88
2024/02/15 02:00:55;;;;;;;30.08;16.35;;;;;;;6.06;100.00;97982.03;4989791;28;20030;-87
2024/02/15 02:03:21;;;;;;;32.30;15.20;;;;;;;6.01;100.00;97974.22;4984644;28;20085;-87
2024/02/15 02:05:47;;;;;;;28.65;16.25;;;;;;;6.05;100.00;97977.63;4995864;28;20029;-88
2024/02/15 02:08:13;;;;;;;30.67;15.73;;;;;;;6.00;100.00;97983.09;4998886;28;20114;-88
2024/02/15 02:10:42;;;;;;;30.02;15.57;;;;;;;5.95;100.00;97975.31;4992034;28;20450;-88
2024/02/15 02:13:09;;;;;;;32.35;16.55;;;;;;;5.98;100.00;97975.22;4996243;28;20025;-88
2024/02/15 02:15:37;;;;;;;31.98;16.48;;;;;;;6.04;100.00;97967.94;4993661;28;20037;-88
2024/02/15 02:18:06;;;;;;;28.88;15.48;;;;;;;6.07;100.00;97973.13;4986499;28;20030;-87
2024/02/15 02:20:34;;;;;;;29.45;15.60;;;;;;;6.01;100.00;97968.91;4993756;28;20109;-88
2024/02/15 02:23:21;;;;;;;31.33;15.23;;;;;;;6.02;100.00;97981.28;4983287;28;20041;-88
2024/02/15 02:25:49;;;;;;;31.55;15.48;;;;;;;5.97;100.00;97984.09;4981123;28;20033;-74
2024/02/15 02:28:16;;;;;;;32.28;14.93;;;;;;;6.00;100.00;97981.31;4989811;28;20128;-87
2024/02/15 02:30:45;;;;;;;31.30;15.52;;;;;;;5.94;100.00;97984.19;4982417;28;20030;-87
2024/02/15 02:33:21;;;;;;;33.35;16.15;;;;;;;5.94;100.00;97986.84;5006770;28;20457;-88
2024/02/15 02:35:48;;;;;;;35.47;16.45;;;;;;;5.93;100.00;97987.81;4983101;28;20582;-85
2024/02/15 02:38:15;;;;;;;36.22;17.48;;;;;;;5.96;100.00;97992.13;4987886;28;20037;-87
2024/02/15 02:40:41;;;;;;;35.63;16.67;;;;;;;6.04;100.00;97999.78;4986566;28;20030;-88
2024/02/15 02:43:07;;;;;;;34.83;16.85;;;;;;;6.08;100.00;98002.28;4998418;28;20211;-88
2024/02/15 02:45:33;;;;;;;39.47;17.33;;;;;;;6.06;100.00;98008.59;4985030;28;20123;-87
2024/02/15 02:47:58;;;;;;;41.50;18.38;;;;;;;6.02;100.00;97983.06;4993040;28;20048;-89
2024/02/15 02:50:24;;;;;;;37.65;19.63;;;;;;;6.02;100.00;97993.69;4983708;28;20025;-87
2024/02/15 02:52:53;;;;;;;39.85;19.15;;;;;;;6.09;100.00;97998.69;4990764;28;20038;-86
2024/02/15 02:55:19;;;;;;;33.90;17.83;;;;;;;6.16;100.00;98007.31;4978934;28;20038;-87
2024/02/15 02:57:44;;;;;;;37.42;18.83;;;;;;;6.11;100.00;97986.25;4985669;28;20107;-88
2024/02/15 03:00:16;;;;;;;32.92;17.48;;;;;;;6.11;100.00;98004.84;4980939;28;20030;-87
2024/02/15 03:02:45;;;;;;;37.75;17.42;;;;;;;6.10;100.00;97999.56;4991285;28;20042;-87
2024/02/15 03:05:12;;;;;;;39.88;18.02;;;;;;;6.14;100.00;97999.41;4994685;28;20125;-86
2024/02/15 03:07:40;;;;;;;42.22;19.30;;;;;;;6.17;100.00;98001.09;4988001;28;20021;-88
2024/02/15 03:10:09;;;;;;;33.67;18.05;;;;;;;6.04;100.00;97983.88;4993822;28;20522;-87
2024/02/15 03:12:36;;;;;;;34.25;16.98;;;;;;;6.14;100.00;97994.09;4992357;28;20107;-87
2024/02/15 03:15:03;;;;;;;31.02;15.82;;;;;;;6.18;100.00;98005.47;4986954;28;20084;-86
2024/02/15 03:17:31;;;;;;;26.15;14.55;;;;;;;6.14;100.00;97991.44;4985011;28;20466;-87
2024/02/15 03:20:00;;;;;;;30.95;14.43;;;;;;;6.15;100.00;98003.81;5001591;28;20030;-87
2024/02/15 03:22:29;;;;;;;30.67;13.52;;;;;;;6.21;100.00;98003.59;4979237;28;20406;-88
2024/02/15 03:24:54;;;;;;;23.40;12.48;;;;;;;6.22;100.00;97999.09;4980068;28;20034;-86
2024/02/15 03:27:22;;;;;;;20.60;10.93;;;;;;;6.16;100.00;97994.03;4985928;28;20092;-86
2024/02/15 03:29:49;;;;;;;18.42;10.80;;;;;;;6.09;100.00;97979.28;4991383;28;20080;-86
2024/02/15 03:32:14;;;;;;;18.05;10.07;;;;;;;6.13;100.00;97979.09;4992422;28;20026;-87
2024/02/15 03:34:42;;;;;;;23.20;12.27;;;;;;;6.20;100.00;97988.56;4989140;28;20037;-87
2024/02/15 03:37:09;;;;;;;24.05;11.52;;;;;;;6.06;100.00;97976.72;4986909;28;20092;-88
2024/02/15 03:39:35;;;;;;;22.23;11.90;;;;;;;6.21;100.00;98002.72;5004964;28;20026;-88
2024/02/15 03:42:00;;;;;;;19.35;9.70;;;;;;;6.21;100.00;97982.34;4989720;28;20022;-87
2024/02/15 03:44:26;;;;;;;17.08;9.93;;;;;;;6.23;100.00;97975.16;4983399;28;20057;-87
2024/02/15 03:46:53;;;;;;;22.40;10.30;;;;;;;6.21;100.00;97982.34;4985706;28;20026;-85
2024/02/15 03:49:19;;;;;;;23.27;10.68;;;;;;;6.24;100.00;97986.66;4987049;28;20121;-87
2024/02/15 03:51:45;;;;;;;19.55;10.38;;;;;;;6.18;100.00;97986.88;4999926;28;20022;-87
2024/02/15 03:54:11;;;;;;;23.23;9.80;;;;;;;6.23;100.00;98000.84;5001845;28;20026;-86
2024/02/15 03:56:37;;;;;;;19.17;9.15;;;;;;;6.20;100.00;97993.00;5003485;28;20036;-86
2024/02/15 03:59:04;;;;;;;17.13;8.93;;;;;;;6.17;100.00;97982.50;4987711;28;20026;-87
2024/02/15 04:01:34;;;;;;;13.65;7.53;;;;;;;6.23;100.00;97996.41;5001686;28;20022;-84
2024/02/15 04:04:00;;;;;;;17.75;8.57;;;;;;;6.14;100.00;97991.44;4984086;28;20055;-84
2024/02/15 04:06:30;;;;;;;21.08;9.13;;;;;;;6.03;100.00;97980.34;4978623;28;20052;-84
2024/02/15 04:08:56;;;;;;;25.25;9.50;;;;;;;6.07;100.00;97983.75;4992889;28;20494;-85
2024/02/15 04:11:22;;;;;;;26.35;10.60;;;;;;;5.89;100.00;97970.25;4991313;28;20036;-85
2024/02/15 04:13:47;;;;;;;43.75;12.63;;;;;;;5.97;100.00;97983.22;4986755;28;20456;-86
2024/02/15 04:16:13;;;;;;;48.30;15.60;;;;;;;5.94;100.00;97994.81;4980276;28;20022;-86
2024/02/15 04:18:39;;;;;;;40.03;13.55;;;;;;;5.91;100.00;97989.63;4986747;28;20018;-84
2024/02/15 04:21:07;;;;;;;34.17;13.90;;;;;;;5.85;100.00;97978.31;4979773;28;20435;-85
2024/02/15 04:23:32;;;;;;;32.63;13.05;;;;;;;5.90;100.00;97995.88;4997733;28;20022;-86
2024/02/15 04:25:59;;;;;;;32.75;14.02;;;;;;;5.93;100.00;98001.06;4988847;28;20088;-84
2024/02/15 04:28:27;;;;;;;23.02;9.73;;;;;;;5.82;100.00;97974.00;4985067;28;20034;-86
2024/02/15 04:30:52;;;;;;;28.00;12.15;;;;;;;5.77;100.00;97962.69;4982569;28;20022;-88
2024/02/15 04:33:18;;;;;;;24.17;11.60;;;;;;;5.98;100.00;97993.78;4985969;28;20098;-84
2024/02/15 04:35:44;;;;;;;23.80;9.95;;;;;;;5.94;100.00;97981.53;4991456;28;20057;-70
2024/02/15 04:38:10;;;;;;;13.63;7.60;;;;;;;5.99;100.00;97987.56;4998798;28;20040;-74
2024/02/15 04:40:38;;;;;;;13.35;6.85;;;;;;;5.92;100.00;97983.41;5008718;28;20410;-75
2024/02/15 04:43:04;;;;;;;15.57;7.97;;;;;;;5.91;100.00;97991.41;5011269;28;20022;-78
2024/02/15 04:45:30;;;;;;;19.40;7.18;;;;;;;5.82;100.00;97984.63;4993110;28;20029;-77
2024/02/15 04:47:57;;;;;;;13.07;7.30;;;;;;;5.93;100.00;98002.84;4993671;28;20045;-78
2024/02/15 04:50:22;;;;;;;16.10;8.00;;;;;;;5.95;100.00;98001.88;5010971;28;20033;-77
2024/02/15 04:52:49;;;;;;;19.40;8.40;;;;;;;6.03;100.00;98006.88;5009567;28;20105;-77
2024/02/15 04:55:17;;;;;;;12.57;6.78;;;;;;;6.05;100.00;98005.06;5002565;28;20018;-76
2024/02/15 04:57:43;;;;;;;12.82;6.40;;;;;;;6.08;100.00;98004.06;4989203;28;20482;-77
2024/02/15 05:00:11;;;;;;;11.95;6.07;;;;;;;6.00;100.00;97994.59;4992631;28;20036;-78
2024/02/15 05:02:40;;;;;;;14.13;6.20;;;;;;;6.03;100.00;98009.53;5008315;28;20141;-77
2024/02/15 05:05:07;;;;;;;9.95;5.93;;;;;;;6.00;100.00;98010.53;4978156;28;20081;-79
2024/02/15 05:07:37;;;;;;;17.30;6.00;;;;;;;6.03;100.00;98030.78;4972946;28;20033;-77
2024/02/15 05:10:06;;;;;;;9.93;5.07;;;;;;;6.02;100.00;98006.97;4973024;28;20026;-77
2024/02/15 05:12:31;;;;;;;13.40;5.03;;;;;;;6.02;100.00;98009.63;4973025;28;20030;-77
2024/02/15 05:14:57;;;;;;;9.98;5.00;;;;;;;6.04;100.00;98016.59;4989793;28;20022;-76
2024/02/15 05:17:23;;;;;;;13.85;6.75;;;;;;;6.01;100.00;98006.09;4989822;28;20031;-73
2024/02/15 05:19:49;;;;;;;7.97;4.28;;;;;;;5.93;100.00;98008.16;4990821;28;20108;-78
2024/02/15 05:22:15;;;;;;;22.95;5.70;;;;;;;5.98;100.00;98016.81;4983264;28;20595;-83
2024/02/15 05:24:40;;;;;;;15.90;5.85;;;;;;;5.99;100.00;98023.88;4981698;28;20117;-84
2024/02/15 05:27:06;;;;;;;21.75;5.53;;;;;;;5.97;100.00;98029.22;5001626;28;20040;-81
2024/02/15 05:29:35;;;;;;;20.73;7.68;;;;;;;5.99;100.00;98040.69;4991350;28;20487;-81
2024/02/15 05:32:01;;;;;;;11.45;6.53;;;;;;;6.04;100.00;98047.59;4981696;28;20038;-83
2024/02/15 05:34:29;;;;;;;13.38;4.93;;;;;;;6.06;100.00;98043.09;4982093;28;20143;-84
2024/02/15 05:36:56;;;;;;;22.65;6.28;;;;;;;6.01;100.00;98043.25;4972060;28;20042;-83
2024/02/15 05:39:23;;;;;;;18.58;8.25;;;;;;;6.11;100.00;98039.34;4981288;28;20018;-78
2024/02/15 05:41:48;;;;;;;69.60;36.30;;;;;;;6.13;100.00;98058.75;4997477;28;20026;-85
2024/02/15 05:44:18;;;;;;;16.33;7.60;;;;;;;6.10;100.00;98047.38;4976715;28;20103;-86
2024/02/15 05:46:44;;;;;;;18.23;9.85;;;;;;;6.04;100.00;98053.78;5002916;28;20080;-86
2024/02/15 05:49:15;;;;;;;18.67;6.57;;;;;;;5.94;100.00;98053.22;4998770;28;20470;-84
2024/02/15 05:51:41;;;;;;;21.10;11.07;;;;;;;6.02;100.00;98052.97;4983121;28;20026;-87
2024/02/15 05:54:07;;;;;;;35.03;16.48;;;;;;;5.98;100.00;98064.59;4985766;28;20473;-84
2024/02/15 05:56:32;;;;;;;16.30;8.50;;;;;;;6.04;100.00;98063.53;4992172;28;20121;-85
2024/02/15 05:58:58;;;;;;;24.30;7.57;;;;;;;6.03;100.00;98049.38;4976721;28;20216;-85
2024/02/15 06:01:24;;;;;;;25.90;7.45;;;;;;;6.18;100.00;98077.19;4986709;28;20066;-85
2024/02/15 06:03:54;;;;;;;25.60;7.68;;;;;;;6.17;100.00;98070.13;5008545;28;20053;-84
2024/02/15 06:06:22;;;;;;;21.40;6.72;;;;;;;6.23;100.00;98073.44;4989142;28;20037;-85
2024/02/15 06:08:48;;;;;;;15.65;6.22;;;;;;;6.25;100.00;98073.38;4991306;28;20409;-84
2024/02/15 06:11:19;;;;;;;11.60;5.68;;;;;;;6.37;100.00;98078.22;4992210;28;20037;-84
2024/02/15 06:13:45;;;;;;;12.45;6.45;;;;;;;6.34;100.00;98068.59;4983864;28;20041;-84
2024/02/15 06:16:11;;;;;;;24.40;8.85;;;;;;;6.40;100.00;98078.13;4985702;28;20034;-85
2024/02/15 06:18:37;;;;;;;84.70;51.05;;;;;;;6.38;100.00;98064.03;4978229;28;20033;-86
2024/02/15 06:21:03;;;;;;;25.60;9.65;;;;;;;6.51;100.00;98060.00;4991588;28;20113;-84
2024/02/15 06:23:29;;;;;;;16.88;6.53;;;;;;;6.63;100.00;98083.47;4985694;28;20121;-85
2024/02/15 06:25:57;;;;;;;15.88;7.57;;;;;;;6.61;100.00;98082.66;4994866;28;20477;-85
2024/02/15 06:39:44;;;;;;;23.77;9.20;;;;;;;7.12;100.00;98100.19;5005419;28;20092;-85
2024/02/15 06:42:16;;;;;;;34.47;12.73;;;;;;;7.21;100.00;98092.69;5003024;28;20033;-85
2024/02/15 06:44:43;;;;;;;18.60;8.80;;;;;;;7.25;100.00;98086.34;5013378;28;20448;-86
2024/02/15 06:47:10;;;;;;;18.77;8.52;;;;;;;7.37;100.00;98087.63;4986844;28;20064;-86
2024/02/15 06:49:39;;;;;;;22.05;9.38;;;;;;;7.25;100.00;98096.13;5005118;28;20567;-85
2024/02/15 06:52:06;;;;;;;21.40;8.75;;;;;;;7.38;100.00;98105.34;4986816;28;20029;-85
2024/02/15 06:54:35;;;;;;;13.30;6.75;;;;;;;7.49;100.00;98097.78;4979593;28;20077;-86
2024/02/15 06:57:02;;;;;;;19.60;7.97;;;;;;;7.60;100.00;98107.06;4987414;28;20034;-86
2024/02/15 06:59:28;;;;;;;16.10;6.68;;;;;;;7.75;100.00;98094.91;4995068;28;20452;-85
2024/02/15 07:01:55;;;;;;;13.45;5.22;;;;;;;7.85;100.00;98087.38;4990750;28;20092;-85
2024/02/15 07:04:20;;;;;;;9.85;5.13;;;;;;;7.87;100.00;98089.06;4980446;28;20506;-85
2024/02/15 07:06:47;;;;;;;9.60;4.78;;;;;;;8.17;100.00;98085.09;5000272;28;20098;-86
2024/02/15 07:09:19;;;;;;;13.80;4.93;;;;;;;8.15;100.00;98086.09;4992965;28;20168;-85
2024/02/15 07:11:46;;;;;;;9.70;3.58;;;;;;;8.07;100.00;98083.75;4992371;28;20026;-84
2024/02/15 07:14:12;;;;;;;13.55;5.38;;;;;;;7.91;99.09;98066.69;5012269;28;20034;-88
2024/02/15 07:16:38;;;;;;;11.77;4.90;;;;;;;8.00;100.00;98073.41;4985290;28;20428;-90
2024/02/15 07:19:04;;;;;;;11.57;5.43;;;;;;;8.31;97.67;98080.94;4993588;28;20034;-87
2024/02/15 07:21:31;;;;;;;13.45;4.82;;;;;;;8.38;99.62;98074.44;4979876;28;20034;-84
2024/02/15 07:23:57;;;;;;;15.20;7.60;;;;;;;8.41;95.80;98076.94;4982875;28;20026;-87
2024/02/15 07:26:27;;;;;;;32.55;16.50;;;;;;;8.42;99.19;98084.03;4995490;28;20029;-85
2024/02/15 07:28:57;;;;;;;9.63;5.32;;;;;;;8.46;99.16;98080.31;4975282;28;20038;-85
2024/02/15 07:31:23;;;;;;;14.13;7.35;;;;;;;8.40;96.38;98075.25;5003372;28;20117;-86
2024/02/15 07:33:51;;;;;;;11.30;6.05;;;;;;;8.51;93.13;98072.94;4995791;28;20038;-85
2024/02/15 07:36:24;;;;;;;16.50;7.82;;;;;;;8.65;95.18;98059.84;4977737;28;20026;-85
2024/02/15 07:38:53;;;;;;;14.57;6.22;;;;;;;8.87;88.42;98059.72;5000104;28;20058;-86
2024/02/15 07:41:22;;;;;;;15.27;5.82;;;;;;;8.94;87.18;98070.03;4992866;28;20408;-86
2024/02/15 07:43:48;;;;;;;17.50;7.45;;;;;;;9.10;85.57;98057.72;4980103;28;20026;-86
2024/02/15 07:46:16;;;;;;;10.02;4.78;;;;;;;9.29;83.22;98062.16;4975566;28;20085;-87
2024/02/15 07:48:46;;;;;;;14.88;6.97;;;;;;;9.49;80.88;98065.56;4990205;28;20076;-86
2024/02/15 07:51:18;;;;;;;30.98;10.77;;;;;;;9.68;88.28;98060.19;4994678;28;20041;-85
2024/02/15 07:53:44;;;;;;;12.63;5.47;;;;;;;9.89;73.54;98056.41;4994513;28;20025;-86
2024/02/15 07:56:10;;;;;;;12.45;5.78;;;;;;;9.94;73.39;98051.69;5001628;28;20037;-87
2024/02/15 07:58:46;;;;;;;14.55;5.60;;;;;;;10.40;69.84;98046.69;5011224;28;20088;-86
2024/02/15 08:01:13;;;;;;;12.07;4.45;;;;;;;10.57;65.59;98046.63;5002376;28;20037;-87
2024/02/15 08:03:44;;;;;;;9.52;4.93;;;;;;;10.66;69.51;98056.81;4975226;28;20070;-85
2024/02/15 08:06:12;;;;;;;9.90;4.85;;;;;;;11.50;63.31;98044.97;4986134;28;20028;-87
2024/02/15 08:08:41;;;;;;;8.57;4.43;;;;;;;12.23;58.20;98030.75;4994735;28;20049;-86
2024/02/15 08:11:15;;;;;;;8.45;4.40;;;;;;;12.89;56.41;98026.56;4988011;28;20544;-86
2024/02/15 08:13:50;;;;;;;8.45;3.65;;;;;;;13.33;54.40;98020.19;4989944;28;20029;-87
2024/02/15 08:16:22;;;;;;;6.75;4.07;;;;;;;13.10;55.19;98013.63;4985670;28;20069;-85
2024/02/15 08:18:48;;;;;;;10.93;4.80;;;;;;;12.77;54.54;98019.28;4975524;28;20030;-85
2024/02/15 08:21:14;;;;;;;7.93;4.40;;;;;;;13.20;55.29;98025.50;4992295;28;20458;-86
2024/02/15 08:23:40;;;;;;;9.20;4.40;;;;;;;13.28;53.29;98023.19;4988795;28;20501;-86
2024/02/15 08:26:06;;;;;;;10.30;4.53;;;;;;;13.38;52.81;98010.03;4994340;28;20099;-86
2024/02/15 08:28:31;;;;;;;10.15;5.00;;;;;;;14.01;51.72;98007.50;4975759;28;20022;-85
2024/02/15 08:30:57;;;;;;;11.02;4.57;;;;;;;13.83;52.11;98008.75;4982680;28;20178;-84
2024/02/15 08:33:24;;;;;;;6.00;4.28;;;;;;;12.49;53.88;98017.47;4979142;28;20081;-85
2024/02/15 08:35:50;;;;;;;11.30;4.97;;;;;;;11.83;55.73;98017.09;4980505;28;20026;-86
2024/02/15 08:38:16;;;;;;;11.55;5.72;;;;;;;11.52;59.32;98032.31;4984355;28;20390;-87
2024/02/15 08:40:44;;;;;;;9.88;4.88;;;;;;;11.35;58.55;98039.50;4974709;28;20526;-86
2024/02/15 08:43:09;;;;;;;10.15;5.25;;;;;;;11.03;62.83;98042.28;4991609;28;20506;-85
2024/02/15 08:45:35;;;;;;;10.13;4.80;;;;;;;10.89;63.11;98037.69;4984904;28;20033;-84
2024/02/15 08:48:04;;;;;;;10.20;5.07;;;;;;;10.89;63.14;98030.53;4989756;28;20029;-87
2024/02/15 08:50:30;;;;;;;12.65;4.85;;;;;;;11.05;62.01;98043.91;4984312;28;20026;-85
2024/02/15 08:52:56;;;;;;;8.70;5.00;;;;;;;11.43;60.51;98026.56;4988100;28;20414;-83
2024/02/15 08:55:26;;;;;;;7.30;4.30;;;;;;;13.53;54.72;98020.59;4977911;28;20512;-85
2024/02/15 08:57:52;;;;;;;10.23;5.97;;;;;;;15.16;49.88;98007.41;4986987;28;20038;-86
2024/02/15 09:00:18;;;;;;;6.85;4.18;;;;;;;16.44;46.60;97996.69;4993763;28;20125;-85
2024/02/15 09:02:44;;;;;;;8.20;4.57;;;;;;;16.90;45.19;97982.28;4989159;28;20085;-85
2024/02/15 09:05:13;;;;;;;16.80;5.22;;;;;;;16.40;44.46;97983.53;4997944;28;20026;-84
2024/02/15 09:07:41;;;;;;;7.90;4.25;;;;;;;15.85;45.13;97982.41;4990671;28;20462;-85
2024/02/15 09:10:09;;;;;;;7.68;4.63;;;;;;;15.60;46.08;97996.03;4990103;28;20409;-83
2024/02/15 09:12:37;;;;;;;7.40;4.35;;;;;;;16.70;44.61;97987.41;4991925;28;20029;-83
2024/02/15 09:15:04;;;;;;;10.25;5.05;;;;;;;17.78;42.66;97982.13;4980120;28;20026;-81
2024/02/15 09:17:32;;;;;;;9.48;4.50;;;;;;;18.15;41.98;97976.31;4990952;28;20026;-86
2024/02/15 09:19:58;;;;;;;5.40;3.88;;;;;;;19.73;39.20;97957.59;4990510;28;20406;-85
2024/02/15 09:22:24;;;;;;;5.85;4.40;;;;;;;18.55;39.63;97960.19;4974056;28;20030;-84
2024/02/15 09:24:49;;;;;;;10.45;4.90;;;;;;;17.77;40.92;97964.19;4982256;28;20041;-84
2024/02/15 09:27:15;;;;;;;6.15;4.38;;;;;;;18.35;40.42;97964.59;4990418;28;20112;-83
2024/02/15 09:29:42;;;;;;;9.45;4.68;;;;;;;19.04;39.26;97946.69;5006402;28;20018;-86
2024/02/15 09:32:07;;;;;;;15.70;5.22;;;;;;;18.85;39.46;97961.06;5015951;28;20030;-86
2024/02/15 09:34:33;;;;;;;6.55;4.13;;;;;;;19.65;37.92;97952.88;4986930;28;20032;-85
2024/02/15 09:36:59;;;;;;;5.97;4.32;;;;;;;19.32;39.52;97950.50;4981262;28;20052;-83
2024/02/15 09:39:24;;;;;;;11.30;5.55;;;;;;;18.58;40.21;97959.94;4997019;28;20033;-83
2024/02/15 09:41:55;;;;;;;8.80;4.90;;;;;;;17.85;40.49;97956.25;4997071;28;20046;-84
2024/02/15 09:44:21;;;;;;;6.30;4.50;;;;;;;18.14;40.35;97966.47;4974560;28;20023;-83
2024/02/15 09:46:51;;;;;;;8.50;4.70;;;;;;;18.32;40.52;97959.44;4985421;28;20041;-83
2024/02/15 09:49:17;;;;;;;10.35;5.55;;;;;;;18.69;38.68;97960.69;5002531;28;20026;-83
2024/02/15 09:51:43;;;;;;;13.70;5.93;;;;;;;19.81;38.46;97942.31;4983559;28;20077;-82
2024/02/15 09:54:10;;;;;;;11.32;5.88;;;;;;;18.56;37.93;97948.34;4991547;28;20030;-80
2024/02/15 09:56:37;;;;;;;10.13;5.93;;;;;;;18.81;38.41;97950.63;4984976;28;20555;-81
2024/02/15 09:59:02;;;;;;;11.00;4.93;;;;;;;19.93;37.78;97946.59;4992275;28;20030;-81
2024/02/15 10:01:31;;;;;;;10.05;5.28;;;;;;;21.06;36.23;97937.50;4994213;28;20033;-80
2024/02/15 10:03:59;;;;;;;11.68;4.65;;;;;;;21.33;35.01;97931.19;4984387;28;20477;-81
2024/02/15 10:06:24;;;;;;;6.90;4.45;;;;;;;21.08;35.30;97919.16;4994870;28;20061;-82
2024/02/15 10:08:50;;;;;;;12.73;4.57;;;;;;;20.92;35.93;97928.94;4979744;28;20034;-83
2024/02/15 10:11:16;;;;;;;14.75;5.10;;;;;;;21.77;35.71;97926.75;4979028;28;20096;-83
2024/02/15 10:13:44;;;;;;;6.82;4.38;;;;;;;21.80;34.44;97917.41;4988777;28;20061;-83
2024/02/15 10:16:18;;;;;;;7.13;4.43;;;;;;;20.67;36.36;97927.78;4994913;28;20026;-82
2024/02/15 10:18:44;;;;;;;8.00;4.63;;;;;;;20.61;36.18;97917.47;4988667;28;20117;-83
2024/02/15 10:21:11;;;;;;;12.80;6.05;;;;;;;21.49;34.76;97901.44;4984263;28;20026;-83
2024/02/15 10:23:36;;;;;;;8.23;4.95;;;;;;;22.58;33.86;97900.16;4982300;28;20173;-83
2024/02/15 10:26:19;;;;;;;10.23;4.57;;;;;;;22.44;33.40;97892.56;4984519;28;20542;-83
2024/02/15 10:28:44;;;;;;;5.43;4.05;;;;;;;21.99;34.64;97895.47;4986484;28;20112;-83
2024/02/15 10:31:13;;;;;;;5.85;4.38;;;;;;;22.48;33.06;97896.69;4983981;28;20122;-83
2024/02/15 10:33:39;;;;;;;10.02;4.25;;;;;;;23.11;32.87;97880.84;4978848;28;20061;-82
2024/02/15 10:36:09;;;;;;;7.53;4.50;;;;;;;23.53;31.49;97875.38;4983090;28;20481;-82
2024/02/15 10:38:38;;;;;;;8.13;4.43;;;;;;;23.65;31.44;97866.69;4986491;28;20035;-83
2024/02/15 10:41:05;;;;;;;7.63;4.55;;;;;;;23.90;31.19;97861.25;4995810;28;20112;-83
2024/02/15 10:43:30;;;;;;;14.30;6.07;;;;;;;22.86;31.79;97859.91;4987207;28;20030;-82
2024/02/15 10:45:56;;;;;;;11.27;5.35;;;;;;;23.94;31.73;97857.13;4988483;28;20036;-83
2024/02/15 10:48:22;;;;;;;8.60;4.70;;;;;;;23.48;32.49;97859.47;4983507;28;20066;-82
2024/02/15 10:50:48;;;;;;;9.45;5.10;;;;;;;23.42;33.02;97860.16;4980183;28;20026;-83
2024/02/15 10:53:32;;;;;;;16.02;6.55;;;;;;;22.66;32.59;97867.53;4989812;28;20038;-84
2024/02/15 10:56:10;;;;;;;14.00;6.07;;;;;;;20.62;35.22;97870.25;4996183;28;20121;-83
2024/02/15 10:58:43;;;;;;;21.55;8.50;;;;;;;20.13;35.39;97865.09;5011087;28;20064;-82
2024/02/15 11:01:11;;;;;;;16.08;7.05;;;;;;;19.98;36.99;97879.13;4997355;28;20548;-83
2024/02/15 11:03:43;;;;;;;14.05;6.28;;;;;;;20.57;36.04;97880.72;5018437;28;20148;-82
2024/02/15 11:06:10;;;;;;;11.10;6.15;;;;;;;20.71;35.65;97861.19;4977384;28;20026;-80
2024/02/15 11:08:36;;;;;;;8.82;5.30;;;;;;;20.80;35.58;97859.44;4980033;28;20133;-80
2024/02/15 11:11:04;;;;;;;12.57;5.13;;;;;;;21.68;34.61;97856.88;5002439;28;20018;-81
2024/02/15 11:13:30;;;;;;;7.22;5.15;;;;;;;21.91;35.04;97863.56;4999738;28;20022;-80
2024/02/15 11:15:57;;;;;;;7.70;5.13;;;;;;;22.28;34.43;97857.88;5005738;28;20036;-80
2024/02/15 11:18:48;;;;;;;8.48;5.55;;;;;;;22.96;33.19;97850.59;4984452;28;20388;-80
2024/02/15 11:21:15;;;;;;;40.58;24.02;;;;;;;22.22;34.57;97852.19;5001291;28;20026;-79
2024/02/15 11:23:41;;;;;;;8.05;4.35;;;;;;;21.01;35.74;97836.41;4977073;28;20104;-79
2024/02/15 11:26:42;;;;;;;7.15;5.03;;;;;;;22.09;34.66;97858.06;4994271;28;20038;-80
2024/02/15 11:29:08;;;;;;;7.03;5.00;;;;;;;21.71;34.82;97845.66;4985053;28;20092;-81
2024/02/15 11:31:53;;;;;;;7.70;4.70;;;;;;;22.13;35.16;97851.31;4990650;28;20116;-81
2024/02/15 11:34:45;;;;;;;8.82;5.07;;;;;;;20.94;37.05;97857.09;5005386;28;20034;-80
2024/02/15 11:37:31;;;;;;;;;;;;;;;21.07;35.37;97846.69;4985864;28;20030;-81